Time,TemperatureF,DewpointF,PressureIn,WindDirection,WindDirectionDegrees,WindSpeedMPH,WindSpeedGustMPH,Humidity,HourlyPrecipIn,Conditions,Clouds,dailyrainin,SoftwareType,DateUTC
2013-01-09 00:00:00,38.0,32.7,30.37,WNW,284,0.0,0.0,81,0.00,,,0.00,Wunderground v.1.15,2013-01-09 05:00:00,
2013-01-09 00:06:00,37.9,32.3,30.37,WNW,284,0.0,1.0,80,0.00,,,0.00,Wunderground v.1.15,2013-01-09 05:06:00,
2013-01-09 00:10:00,37.6,32.0,30.38,WNW,284,0.0,0.0,80,0.00,,,0.00,Wunderground v.1.15,2013-01-09 05:10:00,
2013-01-09 00:11:00,37.6,32.3,30.37,WNW,284,0.0,0.0,81,0.00,,,0.00,Wunderground v.1.15,2013-01-09 05:11:00,
2013-01-09 00:14:00,37.7,32.7,30.38,West,269,0.0,0.0,82,0.00,,,0.00,Wunderground v.1.15,2013-01-09 05:14:00,
2013-01-09 00:19:00,38.1,32.8,30.38,WSW,255,0.0,0.0,81,0.00,,,0.00,Wunderground v.1.15,2013-01-09 05:19:00,
2013-01-09 00:26:00,38.5,32.6,30.38,WSW,255,0.0,0.0,79,0.00,,,0.00,Wunderground v.1.15,2013-01-09 05:26:00,
2013-01-09 00:31:00,38.5,32.9,30.39,WSW,255,0.0,0.0,80,0.00,,,0.00,Wunderground v.1.15,2013-01-09 05:31:00,
2013-01-09 00:37:00,38.6,32.6,30.38,WSW,255,0.0,0.0,79,0.00,,,0.00,Wunderground v.1.15,2013-01-09 05:37:00,
2013-01-09 00:43:00,38.6,32.0,30.38,WSW,255,0.0,0.0,77,0.00,,,0.00,Wunderground v.1.15,2013-01-09 05:43:00,
2013-01-09 00:50:00,38.0,31.7,30.38,WSW,255,0.0,0.0,78,0.00,,,0.00,Wunderground v.1.15,2013-01-09 05:50:00,
2013-01-09 00:56:00,37.6,31.7,30.39,WSW,255,0.0,0.0,79,0.00,,,0.00,Wunderground v.1.15,2013-01-09 05:56:00,
2013-01-09 01:01:00,37.6,32.6,30.39,WSW,255,0.0,1.0,82,0.00,,,0.00,Wunderground v.1.15,2013-01-09 06:01:00,
2013-01-09 01:07:00,37.3,31.7,30.38,WSW,255,0.0,1.0,80,0.00,,,0.00,Wunderground v.1.15,2013-01-09 06:07:00,
2013-01-09 01:13:00,37.4,32.4,30.39,WSW,255,0.0,1.0,82,0.00,,,0.00,Wunderground v.1.15,2013-01-09 06:13:00,
2013-01-09 01:20:00,37.5,32.8,30.39,WSW,254,0.0,1.0,83,0.00,,,0.00,Wunderground v.1.15,2013-01-09 06:20:00,
2013-01-09 01:26:00,37.9,32.9,30.39,WSW,256,0.0,1.0,82,0.00,,,0.00,Wunderground v.1.15,2013-01-09 06:26:00,
2013-01-09 01:32:00,37.5,32.2,30.39,WSW,256,0.0,1.0,81,0.00,,,0.00,Wunderground v.1.15,2013-01-09 06:32:00,
2013-01-09 01:37:00,37.3,32.3,30.40,WSW,256,0.0,1.0,82,0.00,,,0.00,Wunderground v.1.15,2013-01-09 06:37:00,
2013-01-09 01:43:00,37.2,32.8,30.40,WSW,256,0.0,1.0,84,0.00,,,0.00,Wunderground v.1.15,2013-01-09 06:43:00,
2013-01-09 01:49:00,37.3,33.5,30.40,WSW,256,0.0,1.0,86,0.00,,,0.00,Wunderground v.1.15,2013-01-09 06:49:00,
2013-01-09 01:55:00,37.6,33.8,30.41,WSW,256,0.0,1.0,86,0.00,,,0.00,Wunderground v.1.15,2013-01-09 06:55:00,
2013-01-09 02:01:00,37.6,33.2,30.41,WSW,256,0.0,1.0,84,0.00,,,0.00,Wunderground v.1.15,2013-01-09 07:01:00,
2013-01-09 02:08:00,37.7,33.9,30.41,WSW,256,0.0,1.0,86,0.00,,,0.00,Wunderground v.1.15,2013-01-09 07:08:00,
2013-01-09 02:14:00,37.4,32.7,30.41,WNW,297,1.0,2.0,83,0.00,,,0.00,Wunderground v.1.15,2013-01-09 07:14:00,
2013-01-09 02:20:00,37.2,33.1,30.41,WNW,297,1.0,1.0,85,0.00,,,0.00,Wunderground v.1.15,2013-01-09 07:20:00,
2013-01-09 02:25:00,37.0,32.9,30.41,WNW,297,0.0,1.0,85,0.00,,,0.00,Wunderground v.1.15,2013-01-09 07:25:00,
2013-01-09 02:31:00,36.9,33.1,30.41,WNW,297,0.0,1.0,86,0.00,,,0.00,Wunderground v.1.15,2013-01-09 07:31:00,
2013-01-09 02:37:00,36.6,32.5,30.41,WNW,297,0.0,1.0,85,0.00,,,0.00,Wunderground v.1.15,2013-01-09 07:37:00,
2013-01-09 02:43:00,36.4,32.3,30.41,WNW,297,0.0,1.0,85,0.00,,,0.00,Wunderground v.1.15,2013-01-09 07:43:00,
2013-01-09 02:49:00,36.3,32.2,30.41,West,266,0.0,1.0,85,0.00,,,0.00,Wunderground v.1.15,2013-01-09 07:49:00,
2013-01-09 02:56:00,36.6,32.8,30.41,West,267,0.0,1.0,86,0.00,,,0.00,Wunderground v.1.15,2013-01-09 07:56:00,
2013-01-09 03:02:00,37.0,33.2,30.41,WNW,285,0.0,1.0,86,0.00,,,0.00,Wunderground v.1.15,2013-01-09 08:02:00,
2013-01-09 03:08:00,37.4,33.6,30.41,West,281,0.0,1.0,86,0.00,,,0.00,Wunderground v.1.15,2013-01-09 08:08:00,
2013-01-09 03:13:00,37.7,33.9,30.41,NE,56,0.0,1.0,86,0.00,,,0.00,Wunderground v.1.15,2013-01-09 08:13:00,
2013-01-09 03:19:00,37.6,33.5,30.41,NE,56,0.0,1.0,85,0.00,,,0.00,Wunderground v.1.15,2013-01-09 08:19:00,
2013-01-09 03:25:00,37.7,33.6,30.41,NE,56,0.0,1.0,85,0.00,,,0.00,Wunderground v.1.15,2013-01-09 08:25:00,
2013-01-09 03:31:00,37.7,33.6,30.41,NE,55,0.0,1.0,85,0.00,,,0.00,Wunderground v.1.15,2013-01-09 08:31:00,
2013-01-09 03:37:00,37.7,33.6,30.41,WNW,286,0.0,1.0,85,0.00,,,0.00,Wunderground v.1.15,2013-01-09 08:37:00,
2013-01-09 03:44:00,37.9,34.4,30.41,West,278,0.0,1.0,87,0.00,,,0.00,Wunderground v.1.15,2013-01-09 08:44:00,
2013-01-09 03:50:00,38.4,35.2,30.42,WNW,283,0.0,1.0,88,0.00,,,0.00,Wunderground v.1.15,2013-01-09 08:50:00,
2013-01-09 03:56:00,38.8,35.6,30.42,NW,317,0.0,1.0,88,0.00,,,0.00,Wunderground v.1.15,2013-01-09 08:56:00,
2013-01-09 04:01:00,38.9,35.6,30.41,NW,318,0.0,1.0,88,0.00,,,0.00,Wunderground v.1.15,2013-01-09 09:01:00,
2013-01-09 04:07:00,39.1,35.8,30.42,NW,324,0.0,1.0,88,0.00,,,0.00,Wunderground v.1.15,2013-01-09 09:07:00,
2013-01-09 04:13:00,39.2,35.9,30.42,NNW,339,0.0,1.0,88,0.00,,,0.00,Wunderground v.1.15,2013-01-09 09:13:00,
2013-01-09 04:20:00,39.3,36.0,30.42,North,352,0.0,1.0,88,0.00,,,0.00,Wunderground v.1.15,2013-01-09 09:20:00,
2013-01-09 04:26:00,39.3,36.0,30.42,North,352,0.0,1.0,88,0.00,,,0.00,Wunderground v.1.15,2013-01-09 09:26:00,
2013-01-09 04:32:00,39.2,35.9,30.42,North,352,0.0,1.0,88,0.00,,,0.00,Wunderground v.1.15,2013-01-09 09:32:00,
2013-01-09 04:38:00,39.0,35.7,30.41,North,356,0.0,1.0,88,0.00,,,0.00,Wunderground v.1.15,2013-01-09 09:38:00,
2013-01-09 04:44:00,38.9,35.6,30.42,North,357,0.0,1.0,88,0.00,,,0.00,Wunderground v.1.15,2013-01-09 09:44:00,
2013-01-09 04:49:00,39.1,35.6,30.42,NE,48,0.0,1.0,87,0.00,,,0.00,Wunderground v.1.15,2013-01-09 09:49:00,
2013-01-09 04:55:00,39.1,35.6,30.42,NE,49,0.0,1.0,87,0.00,,,0.00,Wunderground v.1.15,2013-01-09 09:55:00,
2013-01-09 05:01:00,39.2,35.9,30.42,NE,49,0.0,1.0,88,0.00,,,0.00,Wunderground v.1.15,2013-01-09 10:01:00,
2013-01-09 05:07:00,39.3,36.0,30.42,NE,49,0.0,1.0,88,0.00,,,0.00,Wunderground v.1.15,2013-01-09 10:07:00,
2013-01-09 05:13:00,39.4,36.1,30.42,NE,49,0.0,1.0,88,0.00,,,0.00,Wunderground v.1.15,2013-01-09 10:13:00,
2013-01-09 05:20:00,39.6,36.0,30.42,NE,48,0.0,1.0,87,0.00,,,0.00,Wunderground v.1.15,2013-01-09 10:20:00,
2013-01-09 05:25:00,39.6,36.0,30.42,NE,48,0.0,1.0,87,0.00,,,0.00,Wunderground v.1.15,2013-01-09 10:25:00,
2013-01-09 05:32:00,39.6,36.0,30.42,NE,48,0.0,1.0,87,0.00,,,0.00,Wunderground v.1.15,2013-01-09 10:32:00,
2013-01-09 05:37:00,39.8,36.2,30.42,NE,49,0.0,1.0,87,0.00,,,0.00,Wunderground v.1.15,2013-01-09 10:37:00,
2013-01-09 05:43:00,39.9,36.1,30.42,NE,49,0.0,1.0,86,0.00,,,0.00,Wunderground v.1.15,2013-01-09 10:43:00,
2013-01-09 05:49:00,39.9,36.1,30.42,NE,49,0.0,1.0,86,0.00,,,0.00,Wunderground v.1.15,2013-01-09 10:49:00,
2013-01-09 05:56:00,40.0,36.4,30.42,NE,48,0.0,1.0,87,0.00,,,0.00,Wunderground v.1.15,2013-01-09 10:56:00,
2013-01-09 06:02:00,40.1,36.5,30.42,NE,45,0.0,1.0,87,0.00,,,0.00,Wunderground v.1.15,2013-01-09 11:02:00,
2013-01-09 06:08:00,40.0,36.4,30.42,NE,39,0.0,2.0,87,0.00,,,0.00,Wunderground v.1.15,2013-01-09 11:08:00,
2013-01-09 06:14:00,40.1,36.5,30.42,NE,51,1.0,1.0,87,0.00,,,0.00,Wunderground v.1.15,2013-01-09 11:14:00,
2013-01-09 06:20:00,40.0,36.4,30.42,NE,38,0.0,2.0,87,0.00,,,0.00,Wunderground v.1.15,2013-01-09 11:20:00,
2013-01-09 06:25:00,40.1,36.5,30.42,NE,38,1.0,2.0,87,0.00,,,0.00,Wunderground v.1.15,2013-01-09 11:25:00,
2013-01-09 06:31:00,40.2,36.6,30.42,ENE,74,1.0,2.0,87,0.00,,,0.00,Wunderground v.1.15,2013-01-09 11:31:00,
2013-01-09 06:37:00,40.5,36.9,30.42,ENE,60,2.0,3.0,87,0.00,,,0.00,Wunderground v.1.15,2013-01-09 11:37:00,
2013-01-09 06:44:00,40.7,37.1,30.42,East,85,2.0,2.0,87,0.00,,,0.00,Wunderground v.1.15,2013-01-09 11:44:00,
2013-01-09 06:50:00,40.8,37.2,30.42,NE,38,2.0,2.0,87,0.00,,,0.00,Wunderground v.1.15,2013-01-09 11:50:00,
2013-01-09 06:56:00,40.7,37.1,30.42,North,1,3.0,5.0,87,0.00,,,0.00,Wunderground v.1.15,2013-01-09 11:56:00,
2013-01-09 07:01:00,40.5,36.3,30.42,North,356,3.0,3.0,85,0.00,,,0.00,Wunderground v.1.15,2013-01-09 12:01:00,
2013-01-09 07:08:00,40.5,36.0,30.42,WNW,294,1.0,3.0,84,0.00,,,0.00,Wunderground v.1.15,2013-01-09 12:08:00,
2013-01-09 07:13:00,40.6,35.5,30.42,NNE,14,0.0,1.0,82,0.00,,,0.00,Wunderground v.1.15,2013-01-09 12:13:00,
2013-01-09 07:19:00,40.6,35.2,30.42,North,11,0.0,1.0,81,0.00,,,0.00,Wunderground v.1.15,2013-01-09 12:19:00,
2013-01-09 07:25:00,40.6,35.5,30.42,East,94,0.0,1.0,82,0.00,,,0.00,Wunderground v.1.15,2013-01-09 12:25:00,
2013-01-09 07:32:00,40.7,35.3,30.43,ENE,59,0.0,1.0,81,0.00,,,0.00,Wunderground v.1.15,2013-01-09 12:32:00,
2013-01-09 07:38:00,40.7,35.0,30.44,West,266,0.0,1.0,80,0.00,,,0.00,Wunderground v.1.15,2013-01-09 12:38:00,
2013-01-09 07:44:00,40.7,34.7,30.44,NNW,339,0.0,1.0,79,0.00,,,0.00,Wunderground v.1.15,2013-01-09 12:44:00,
2013-01-09 07:49:00,40.9,34.9,30.44,North,349,0.0,1.0,79,0.00,,,0.00,Wunderground v.1.15,2013-01-09 12:49:00,
2013-01-09 07:55:00,40.7,35.0,30.44,WNW,283,0.0,1.0,80,0.00,,,0.00,Wunderground v.1.15,2013-01-09 12:55:00,
2013-01-09 08:01:00,40.7,34.7,30.44,WNW,283,0.0,1.0,79,0.00,,,0.00,Wunderground v.1.15,2013-01-09 13:01:00,
2013-01-09 08:08:00,41.0,35.3,30.44,WNW,283,0.0,1.0,80,0.00,,,0.00,Wunderground v.1.15,2013-01-09 13:08:00,
2013-01-09 08:13:00,41.3,35.6,30.45,WNW,283,0.0,1.0,80,0.00,,,0.00,Wunderground v.1.15,2013-01-09 13:13:00,
2013-01-09 08:19:00,41.5,35.8,30.45,NNE,33,0.0,1.0,80,0.00,,,0.00,Wunderground v.1.15,2013-01-09 13:19:00,
2013-01-09 08:25:00,41.5,35.8,30.45,NNE,32,0.0,1.0,80,0.00,,,0.00,Wunderground v.1.15,2013-01-09 13:25:00,
2013-01-09 08:32:00,42.2,35.8,30.45,NE,39,0.0,1.0,78,0.00,,,0.00,Wunderground v.1.15,2013-01-09 13:32:00,
2013-01-09 08:38:00,42.5,35.8,30.45,NE,38,0.0,1.0,77,0.00,,,0.00,Wunderground v.1.15,2013-01-09 13:38:00,
2013-01-09 08:44:00,42.7,35.7,30.45,ENE,72,0.0,1.0,76,0.00,,,0.00,Wunderground v.1.15,2013-01-09 13:44:00,
2013-01-09 08:49:00,42.7,35.7,30.46,ENE,72,0.0,1.0,76,0.00,,,0.00,Wunderground v.1.15,2013-01-09 13:49:00,
2013-01-09 08:55:00,42.8,35.4,30.46,NNE,32,0.0,1.0,75,0.00,,,0.00,Wunderground v.1.15,2013-01-09 13:55:00,
2013-01-09 09:01:00,42.9,35.5,30.46,NNE,33,0.0,1.0,75,0.00,,,0.00,Wunderground v.1.15,2013-01-09 14:01:00,
2013-01-09 09:08:00,42.9,35.5,30.46,NNE,33,0.0,1.0,75,0.00,,,0.00,Wunderground v.1.15,2013-01-09 14:08:00,
2013-01-09 09:14:00,43.0,35.6,30.46,ENE,68,0.0,1.0,75,0.00,,,0.00,Wunderground v.1.15,2013-01-09 14:14:00,
2013-01-09 09:20:00,43.2,35.8,30.47,ENE,69,0.0,1.0,75,0.00,,,0.00,Wunderground v.1.15,2013-01-09 14:20:00,
2013-01-09 09:25:00,43.5,35.1,30.47,ENE,69,0.0,1.0,72,0.00,,,0.00,Wunderground v.1.15,2013-01-09 14:25:00,
2013-01-09 09:31:00,43.6,35.2,30.47,East,97,0.0,1.0,72,0.00,,,0.00,Wunderground v.1.15,2013-01-09 14:31:00,
2013-01-09 09:37:00,43.8,35.4,30.47,East,98,1.0,1.0,72,0.00,,,0.00,Wunderground v.1.15,2013-01-09 14:37:00,
2013-01-09 09:44:00,43.9,35.8,30.47,ENE,76,2.0,3.0,73,0.00,,,0.00,Wunderground v.1.15,2013-01-09 14:44:00,
2013-01-09 09:50:00,43.8,36.0,30.47,ENE,74,3.0,3.0,74,0.00,,,0.00,Wunderground v.1.15,2013-01-09 14:50:00,
2013-01-09 09:55:00,43.9,36.8,30.47,East,80,2.0,3.0,76,0.00,,,0.00,Wunderground v.1.15,2013-01-09 14:55:00,
2013-01-09 10:01:00,44.0,36.6,30.48,East,80,1.0,1.0,75,0.00,,,0.00,Wunderground v.1.15,2013-01-09 15:01:00,
2013-01-09 10:07:00,44.2,37.1,30.48,ESE,112,0.0,1.0,76,0.00,,,0.00,Wunderground v.1.15,2013-01-09 15:07:00,
2013-01-09 10:13:00,44.1,37.0,30.49,ESE,105,1.0,2.0,76,0.00,,,0.00,Wunderground v.1.15,2013-01-09 15:13:00,
2013-01-09 10:19:00,44.1,37.0,30.49,East,98,1.0,1.0,76,0.00,,,0.00,Wunderground v.1.15,2013-01-09 15:19:00,
2013-01-09 10:26:00,44.1,37.0,30.49,ESE,109,1.0,2.0,76,0.00,,,0.00,Wunderground v.1.15,2013-01-09 15:26:00,
2013-01-09 10:32:00,44.0,36.9,30.49,East,95,2.0,2.0,76,0.00,,,0.00,Wunderground v.1.15,2013-01-09 15:32:00,
2013-01-09 10:38:00,43.8,37.1,30.49,East,100,1.0,2.0,77,0.00,,,0.00,Wunderground v.1.15,2013-01-09 15:38:00,
2013-01-09 10:43:00,43.9,37.5,30.49,East,86,1.0,1.0,78,0.00,,,0.00,Wunderground v.1.15,2013-01-09 15:43:00,
2013-01-09 10:49:00,44.1,37.3,30.49,East,87,0.0,1.0,77,0.00,,,0.01,Wunderground v.1.15,2013-01-09 15:49:00,
2013-01-09 10:55:00,44.2,37.8,30.48,East,86,0.0,1.0,78,0.00,,,0.01,Wunderground v.1.15,2013-01-09 15:55:00,
2013-01-09 11:02:00,44.3,38.2,30.49,NE,52,0.0,1.0,79,0.00,,,0.01,Wunderground v.1.15,2013-01-09 16:02:00,
2013-01-09 11:08:00,44.4,38.3,30.48,NE,39,0.0,1.0,79,0.00,,,0.01,Wunderground v.1.15,2013-01-09 16:08:00,
2013-01-09 11:14:00,44.5,38.1,30.48,North,11,0.0,1.0,78,0.00,,,0.01,Wunderground v.1.15,2013-01-09 16:14:00,
2013-01-09 11:19:00,44.7,37.9,30.48,NNE,13,0.0,1.0,77,0.00,,,0.01,Wunderground v.1.15,2013-01-09 16:19:00,
2013-01-09 11:25:00,44.8,37.7,30.48,NNE,13,0.0,1.0,76,0.00,,,0.01,Wunderground v.1.15,2013-01-09 16:25:00,
2013-01-09 11:31:00,45.2,38.7,30.48,NNE,13,0.0,1.0,78,0.00,,,0.01,Wunderground v.1.15,2013-01-09 16:31:00,
2013-01-09 11:38:00,45.7,39.2,30.48,NNE,13,0.0,1.0,78,0.00,,,0.02,Wunderground v.1.15,2013-01-09 16:38:00,
2013-01-09 11:44:00,45.9,40.1,30.48,NNE,13,0.0,1.0,80,0.00,,,0.02,Wunderground v.1.15,2013-01-09 16:44:00,
2013-01-09 11:49:00,46.3,40.1,30.48,NNE,13,0.0,1.0,79,0.00,,,0.02,Wunderground v.1.15,2013-01-09 16:49:00,
2013-01-09 11:55:00,46.0,39.5,30.48,SE,127,0.0,1.0,78,0.00,,,0.02,Wunderground v.1.15,2013-01-09 16:55:00,
2013-01-09 12:01:00,45.8,39.7,30.48,ESE,108,0.0,1.0,79,0.00,,,0.02,Wunderground v.1.15,2013-01-09 17:01:00,
2013-01-09 12:08:00,45.5,40.0,30.48,East,84,0.0,1.0,81,0.00,,,0.02,Wunderground v.1.15,2013-01-09 17:08:00,
2013-01-09 12:14:00,45.3,39.8,30.48,ESE,105,0.0,1.0,81,0.00,,,0.03,Wunderground v.1.15,2013-01-09 17:14:00,
2013-01-09 12:20:00,45.0,40.1,30.47,East,100,0.0,1.0,83,0.00,,,0.03,Wunderground v.1.15,2013-01-09 17:20:00,
2013-01-09 12:25:00,44.9,40.4,30.47,East,100,1.0,1.0,84,0.00,,,0.03,Wunderground v.1.15,2013-01-09 17:25:00,
2013-01-09 12:32:00,44.8,40.6,30.46,ENE,76,1.0,3.0,85,0.00,,,0.03,Wunderground v.1.15,2013-01-09 17:32:00,
2013-01-09 12:37:00,44.7,40.8,30.46,ENE,68,2.0,3.0,86,0.00,,,0.03,Wunderground v.1.15,2013-01-09 17:37:00,
2013-01-09 12:44:00,44.7,41.1,30.46,ENE,62,1.0,2.0,87,0.00,,,0.03,Wunderground v.1.15,2013-01-09 17:44:00,
2013-01-09 12:49:00,44.8,41.2,30.46,ENE,63,0.0,1.0,87,0.00,,,0.03,Wunderground v.1.15,2013-01-09 17:49:00,
2013-01-09 12:55:00,44.9,41.6,30.46,ENE,62,0.0,1.0,88,0.00,,,0.03,Wunderground v.1.15,2013-01-09 17:55:00,
2013-01-09 13:01:00,44.9,41.6,30.46,East,100,0.0,1.0,88,0.00,,,0.03,Wunderground v.1.15,2013-01-09 18:01:00,
2013-01-09 13:07:00,44.9,41.6,30.46,NE,56,0.0,1.0,88,0.00,,,0.03,Wunderground v.1.15,2013-01-09 18:07:00,
2013-01-09 13:14:00,44.8,41.5,30.46,NE,53,0.0,1.0,88,0.00,,,0.04,Wunderground v.1.15,2013-01-09 18:14:00,
2013-01-09 13:19:00,44.6,41.3,30.45,ENE,77,1.0,2.0,88,0.00,,,0.04,Wunderground v.1.15,2013-01-09 18:19:00,
2013-01-09 13:26:00,44.4,41.4,30.46,East,81,1.0,2.0,89,0.00,,,0.04,Wunderground v.1.15,2013-01-09 18:26:00,
2013-01-09 13:32:00,44.3,41.6,30.46,East,92,1.0,2.0,90,0.00,,,0.04,Wunderground v.1.15,2013-01-09 18:32:00,
2013-01-09 13:38:00,44.2,41.2,30.45,ENE,63,2.0,3.0,89,0.00,,,0.04,Wunderground v.1.15,2013-01-09 18:38:00,
2013-01-09 13:42:00,44.1,41.4,30.45,NE,45,2.0,2.0,90,0.00,,,0.04,Wunderground v.1.15,2013-01-09 18:42:00,
2013-01-09 13:43:00,44.1,41.4,30.45,NE,39,2.0,2.0,90,0.00,,,0.04,Wunderground v.1.15,2013-01-09 18:43:00,
2013-01-09 13:45:00,44.1,41.4,30.45,NE,38,2.0,2.0,90,0.00,,,0.04,Wunderground v.1.15,2013-01-09 18:45:00,
2013-01-09 13:47:00,44.2,41.5,30.45,NNE,27,2.0,2.0,90,0.00,,,0.04,Wunderground v.1.15,2013-01-09 18:47:00,
2013-01-09 13:49:00,44.2,41.7,30.46,NNE,27,1.0,1.0,91,0.00,,,0.04,Wunderground v.1.15,2013-01-09 18:49:00,
2013-01-09 13:51:00,44.3,41.8,30.46,NNE,31,1.0,1.0,91,0.00,,,0.04,Wunderground v.1.15,2013-01-09 18:51:00,
2013-01-09 13:53:00,44.4,41.9,30.46,NNE,31,0.0,1.0,91,0.00,,,0.04,Wunderground v.1.15,2013-01-09 18:53:00,
2013-01-09 13:57:00,44.6,42.1,30.46,ENE,58,0.0,1.0,91,0.00,,,0.04,Wunderground v.1.15,2013-01-09 18:57:00,
2013-01-09 14:03:00,44.7,42.2,30.46,NE,42,1.0,1.0,91,0.00,,,0.04,Wunderground v.1.15,2013-01-09 19:03:00,
2013-01-09 14:10:00,44.8,42.3,30.46,NE,49,1.0,1.0,91,0.00,,,0.04,Wunderground v.1.15,2013-01-09 19:10:00,
2013-01-09 14:16:00,44.9,42.4,30.46,East,82,1.0,2.0,91,0.00,,,0.04,Wunderground v.1.15,2013-01-09 19:16:00,
2013-01-09 14:22:00,44.8,42.3,30.46,East,84,1.0,4.0,91,0.00,,,0.04,Wunderground v.1.15,2013-01-09 19:22:00,
2013-01-09 14:27:00,44.6,42.1,30.47,ENE,66,3.0,4.0,91,0.00,,,0.04,Wunderground v.1.15,2013-01-09 19:27:00,
2013-01-09 14:33:00,44.5,42.3,30.47,NE,50,3.0,3.0,92,0.00,,,0.04,Wunderground v.1.15,2013-01-09 19:33:00,
2013-01-09 14:39:00,44.5,42.6,30.47,ENE,74,3.0,3.0,93,0.00,,,0.04,Wunderground v.1.15,2013-01-09 19:39:00,
2013-01-09 14:45:00,44.5,42.3,30.46,East,85,4.0,6.0,92,0.00,,,0.04,Wunderground v.1.15,2013-01-09 19:45:00,
2013-01-09 14:51:00,44.6,42.4,30.47,East,88,5.0,5.0,92,0.00,,,0.04,Wunderground v.1.15,2013-01-09 19:51:00,
2013-01-09 14:57:00,44.7,42.5,30.47,ESE,103,3.0,5.0,92,0.00,,,0.04,Wunderground v.1.15,2013-01-09 19:57:00,
2013-01-09 15:03:00,44.7,42.5,30.47,ESE,112,2.0,3.0,92,0.00,,,0.04,Wunderground v.1.15,2013-01-09 20:03:00,
2013-01-09 15:09:00,44.8,42.6,30.46,SE,134,1.0,1.0,92,0.00,,,0.04,Wunderground v.1.15,2013-01-09 20:09:00,
2013-01-09 15:15:00,44.9,42.7,30.46,SE,135,0.0,1.0,92,0.00,,,0.04,Wunderground v.1.15,2013-01-09 20:15:00,
2013-01-09 15:21:00,45.2,43.0,30.46,SSE,158,0.0,1.0,92,0.00,,,0.04,Wunderground v.1.15,2013-01-09 20:21:00,
2013-01-09 15:27:00,45.5,43.3,30.46,SSE,158,0.0,1.0,92,0.00,,,0.04,Wunderground v.1.15,2013-01-09 20:27:00,
2013-01-09 15:33:00,45.7,43.5,30.46,SSE,158,0.0,1.0,92,0.00,,,0.04,Wunderground v.1.15,2013-01-09 20:33:00,
2013-01-09 15:40:00,46.0,43.8,30.46,SSE,158,0.0,1.0,92,0.00,,,0.04,Wunderground v.1.15,2013-01-09 20:40:00,
2013-01-09 15:46:00,46.1,43.9,30.47,SSE,158,0.0,1.0,92,0.00,,,0.04,Wunderground v.1.15,2013-01-09 20:46:00,
2013-01-09 15:51:00,46.3,43.8,30.46,SSE,158,0.0,1.0,91,0.00,,,0.04,Wunderground v.1.15,2013-01-09 20:51:00,
2013-01-09 15:57:00,46.4,43.9,30.47,NNW,342,0.0,1.0,91,0.00,,,0.04,Wunderground v.1.15,2013-01-09 20:57:00,
2013-01-09 16:03:00,46.4,43.9,30.47,NNW,342,0.0,1.0,91,0.00,,,0.04,Wunderground v.1.15,2013-01-09 21:03:00,
2013-01-09 16:09:00,46.5,44.0,30.47,NNW,342,0.0,1.0,91,0.00,,,0.04,Wunderground v.1.15,2013-01-09 21:09:00,
2013-01-09 16:16:00,46.6,44.1,30.46,NNW,342,0.0,1.0,91,0.00,,,0.04,Wunderground v.1.15,2013-01-09 21:16:00,
2013-01-09 16:21:00,46.8,44.3,30.46,NNW,342,0.0,1.0,91,0.00,,,0.04,Wunderground v.1.15,2013-01-09 21:21:00,
2013-01-09 16:27:00,46.6,44.1,30.45,NNW,342,0.0,1.0,91,0.00,,,0.04,Wunderground v.1.15,2013-01-09 21:27:00,
2013-01-09 16:33:00,46.5,44.0,30.43,SE,146,1.0,2.0,91,0.00,,,0.04,Wunderground v.1.15,2013-01-09 21:33:00,
2013-01-09 16:39:00,46.5,44.3,30.42,SSE,157,3.0,3.0,92,0.00,,,0.04,Wunderground v.1.15,2013-01-09 21:39:00,
2013-01-09 16:45:00,46.6,44.4,30.46,North,6,5.0,12.0,92,0.00,,,0.05,Wunderground v.1.15,2013-01-09 21:45:00,
2013-01-09 16:52:00,46.6,44.4,30.44,NNE,33,7.0,7.0,92,0.00,,,0.05,Wunderground v.1.15,2013-01-09 21:52:00,
2013-01-09 16:58:00,46.6,44.4,30.45,North,357,5.0,8.0,92,0.00,,,0.05,Wunderground v.1.15,2013-01-09 21:58:00,
2013-01-09 17:04:00,46.8,44.6,30.46,NNE,14,3.0,5.0,92,0.00,,,0.05,Wunderground v.1.15,2013-01-09 22:04:00,
2013-01-09 17:09:00,46.8,44.6,30.46,NE,46,3.0,3.0,92,0.00,,,0.05,Wunderground v.1.15,2013-01-09 22:09:00,
2013-01-09 17:15:00,46.8,44.6,30.46,ENE,70,3.0,3.0,92,0.00,,,0.05,Wunderground v.1.15,2013-01-09 22:15:00,
2013-01-09 17:21:00,46.8,44.6,30.45,NE,47,1.0,1.0,92,0.00,,,0.05,Wunderground v.1.15,2013-01-09 22:21:00,
2013-01-09 17:27:00,46.8,44.6,30.45,East,80,1.0,3.0,92,0.00,,,0.05,Wunderground v.1.15,2013-01-09 22:27:00,
2013-01-09 17:33:00,46.7,44.5,30.46,ENE,61,2.0,5.0,92,0.00,,,0.05,Wunderground v.1.15,2013-01-09 22:33:00,
2013-01-09 17:40:00,46.6,44.4,30.46,NNE,31,3.0,4.0,92,0.00,,,0.05,Wunderground v.1.15,2013-01-09 22:40:00,
2013-01-09 17:46:00,46.5,44.3,30.46,NE,42,4.0,5.0,92,0.00,,,0.05,Wunderground v.1.15,2013-01-09 22:46:00,
2013-01-09 17:51:00,46.5,44.3,30.47,NE,39,4.0,6.0,92,0.00,,,0.05,Wunderground v.1.15,2013-01-09 22:51:00,
2013-01-09 17:57:00,46.5,44.3,30.47,East,96,4.0,6.0,92,0.00,,,0.05,Wunderground v.1.15,2013-01-09 22:57:00,
2013-01-09 18:03:00,46.5,44.3,30.47,NE,35,4.0,4.0,92,0.00,,,0.05,Wunderground v.1.15,2013-01-09 23:03:00,
2013-01-09 18:09:00,46.5,44.3,30.47,North,6,4.0,4.0,92,0.00,,,0.05,Wunderground v.1.15,2013-01-09 23:09:00,
2013-01-09 18:15:00,46.4,44.2,30.47,NNE,29,4.0,6.0,92,0.00,,,0.05,Wunderground v.1.15,2013-01-09 23:15:00,
2013-01-09 18:21:00,46.5,44.3,30.47,NE,38,4.0,4.0,92,0.00,,,0.05,Wunderground v.1.15,2013-01-09 23:21:00,
2013-01-09 18:28:00,46.5,44.3,30.48,NNE,18,3.0,4.0,92,0.00,,,0.05,Wunderground v.1.15,2013-01-09 23:28:00,
2013-01-09 18:34:00,46.6,44.4,30.48,NE,52,2.0,2.0,92,0.00,,,0.05,Wunderground v.1.15,2013-01-09 23:34:00,
2013-01-09 18:40:00,46.6,44.4,30.48,NNE,21,2.0,3.0,92,0.00,,,0.05,Wunderground v.1.15,2013-01-09 23:40:00,
2013-01-09 18:45:00,46.7,44.5,30.48,NNE,19,2.0,3.0,92,0.00,,,0.05,Wunderground v.1.15,2013-01-09 23:45:00,
2013-01-09 18:52:00,46.7,44.5,30.48,NE,41,3.0,4.0,92,0.00,,,0.05,Wunderground v.1.15,2013-01-09 23:52:00,
2013-01-09 18:57:00,46.7,44.5,30.48,NE,34,3.0,4.0,92,0.00,,,0.05,Wunderground v.1.15,2013-01-09 23:57:00,
2013-01-09 19:04:00,46.8,44.6,30.48,East,82,2.0,3.0,92,0.00,,,0.05,Wunderground v.1.15,2013-01-10 00:04:00,
2013-01-09 19:10:00,46.8,44.6,30.48,NNE,26,1.0,1.0,92,0.00,,,0.05,Wunderground v.1.15,2013-01-10 00:10:00,
2013-01-09 19:15:00,46.8,44.6,30.48,ENE,59,1.0,2.0,92,0.00,,,0.05,Wunderground v.1.15,2013-01-10 00:15:00,
2013-01-09 19:21:00,46.9,44.7,30.48,NE,39,2.0,2.0,92,0.00,,,0.05,Wunderground v.1.15,2013-01-10 00:21:00,
2013-01-09 19:27:00,46.9,44.7,30.48,NE,42,2.0,3.0,92,0.00,,,0.05,Wunderground v.1.15,2013-01-10 00:27:00,
2013-01-09 19:33:00,46.9,44.7,30.48,NNE,32,2.0,4.0,92,0.00,,,0.05,Wunderground v.1.15,2013-01-10 00:33:00,
2013-01-09 19:40:00,46.9,44.7,30.48,NE,43,3.0,3.0,92,0.00,,,0.05,Wunderground v.1.15,2013-01-10 00:40:00,
2013-01-09 19:46:00,47.0,44.8,30.49,NNE,21,2.0,3.0,92,0.00,,,0.05,Wunderground v.1.15,2013-01-10 00:46:00,
2013-01-09 19:52:00,47.0,44.8,30.49,NE,52,2.0,2.0,92,0.00,,,0.05,Wunderground v.1.15,2013-01-10 00:52:00,
2013-01-09 19:57:00,47.0,44.8,30.49,ENE,60,2.0,3.0,92,0.00,,,0.05,Wunderground v.1.15,2013-01-10 00:57:00,
2013-01-09 20:03:00,47.0,44.8,30.49,NE,53,2.0,4.0,92,0.00,,,0.05,Wunderground v.1.15,2013-01-10 01:03:00,
2013-01-09 20:09:00,47.1,44.9,30.49,NE,44,2.0,2.0,92,0.00,,,0.05,Wunderground v.1.15,2013-01-10 01:09:00,
2013-01-09 20:16:00,47.0,44.8,30.49,ENE,72,1.0,3.0,92,0.00,,,0.05,Wunderground v.1.15,2013-01-10 01:16:00,
2013-01-09 20:21:00,47.0,44.8,30.49,NE,36,2.0,3.0,92,0.00,,,0.05,Wunderground v.1.15,2013-01-10 01:21:00,
2013-01-09 20:28:00,46.9,44.7,30.50,NE,44,2.0,3.0,92,0.00,,,0.05,Wunderground v.1.15,2013-01-10 01:28:00,
2013-01-09 20:33:00,47.0,44.8,30.50,ENE,70,2.0,3.0,92,0.00,,,0.05,Wunderground v.1.15,2013-01-10 01:33:00,
2013-01-09 20:40:00,47.0,44.8,30.51,NE,36,2.0,2.0,92,0.00,,,0.05,Wunderground v.1.15,2013-01-10 01:40:00,
2013-01-09 20:45:00,47.1,44.9,30.51,NE,47,2.0,2.0,92,0.00,,,0.05,Wunderground v.1.15,2013-01-10 01:45:00,
2013-01-09 20:51:00,47.1,44.9,30.51,NE,42,1.0,1.0,92,0.00,,,0.05,Wunderground v.1.15,2013-01-10 01:51:00,
2013-01-09 20:57:00,47.1,44.9,30.51,NE,36,0.0,1.0,92,0.00,,,0.05,Wunderground v.1.15,2013-01-10 01:57:00,
2013-01-09 21:03:00,47.1,44.9,30.51,NE,36,0.0,1.0,92,0.00,,,0.05,Wunderground v.1.15,2013-01-10 02:03:00,
2013-01-09 21:09:00,47.1,44.9,30.51,NNE,24,0.0,1.0,92,0.00,,,0.05,Wunderground v.1.15,2013-01-10 02:09:00,
2013-01-09 21:16:00,47.1,44.9,30.51,NNW,345,0.0,1.0,92,0.00,,,0.05,Wunderground v.1.15,2013-01-10 02:16:00,
2013-01-09 21:22:00,47.1,44.9,30.51,East,92,0.0,1.0,92,0.00,,,0.05,Wunderground v.1.15,2013-01-10 02:22:00,
2013-01-09 21:28:00,47.1,44.9,30.51,SSE,149,0.0,1.0,92,0.00,,,0.05,Wunderground v.1.15,2013-01-10 02:28:00,
2013-01-09 21:33:00,47.0,44.8,30.51,SSE,149,0.0,1.0,92,0.00,,,0.05,Wunderground v.1.15,2013-01-10 02:33:00,
2013-01-09 21:39:00,46.9,44.7,30.51,SSE,149,0.0,1.0,92,0.00,,,0.05,Wunderground v.1.15,2013-01-10 02:39:00,
2013-01-09 21:45:00,46.9,45.0,30.51,SSE,149,0.0,1.0,93,0.00,,,0.05,Wunderground v.1.15,2013-01-10 02:45:00,
2013-01-09 21:51:00,46.8,44.9,30.51,NW,316,0.0,1.0,93,0.00,,,0.05,Wunderground v.1.15,2013-01-10 02:51:00,
2013-01-09 21:57:00,46.7,44.8,30.51,WNW,294,1.0,1.0,93,0.00,,,0.05,Wunderground v.1.15,2013-01-10 02:57:00,
2013-01-09 22:03:00,46.7,44.8,30.51,WSW,257,1.0,1.0,93,0.00,,,0.05,Wunderground v.1.15,2013-01-10 03:03:00,
2013-01-09 22:10:00,46.8,44.9,30.52,WNW,285,1.0,1.0,93,0.00,,,0.05,Wunderground v.1.15,2013-01-10 03:10:00,
2013-01-09 22:16:00,46.9,45.0,30.52,WNW,285,0.0,1.0,93,0.00,,,0.05,Wunderground v.1.15,2013-01-10 03:16:00,
2013-01-09 22:21:00,46.9,45.0,30.52,WNW,285,0.0,1.0,93,0.00,,,0.05,Wunderground v.1.15,2013-01-10 03:21:00,
2013-01-09 22:27:00,46.8,44.9,30.52,WNW,285,0.0,1.0,93,0.00,,,0.05,Wunderground v.1.15,2013-01-10 03:27:00,
2013-01-09 22:33:00,46.7,44.8,30.52,NNW,340,0.0,1.0,93,0.00,,,0.05,Wunderground v.1.15,2013-01-10 03:33:00,
2013-01-09 22:39:00,46.8,44.9,30.52,NE,35,2.0,4.0,93,0.00,,,0.05,Wunderground v.1.15,2013-01-10 03:39:00,
2013-01-09 22:45:00,46.8,44.9,30.52,NE,35,3.0,4.0,93,0.00,,,0.05,Wunderground v.1.15,2013-01-10 03:45:00,
2013-01-09 22:52:00,47.0,45.1,30.52,North,11,2.0,2.0,93,0.00,,,0.05,Wunderground v.1.15,2013-01-10 03:52:00,
2013-01-09 22:57:00,47.0,45.1,30.52,North,11,0.0,2.0,93,0.00,,,0.05,Wunderground v.1.15,2013-01-10 03:57:00,
2013-01-09 23:04:00,46.9,45.0,30.52,NE,55,0.0,2.0,93,0.00,,,0.05,Wunderground v.1.15,2013-01-10 04:04:00,
2013-01-09 23:09:00,46.9,45.0,30.52,NNE,21,2.0,4.0,93,0.00,,,0.05,Wunderground v.1.15,2013-01-10 04:09:00,
2013-01-09 23:15:00,47.0,45.4,30.51,NNE,27,3.0,4.0,94,0.00,,,0.05,Wunderground v.1.15,2013-01-10 04:15:00,
2013-01-09 23:21:00,47.2,45.3,30.51,NNE,25,4.0,4.0,93,0.00,,,0.05,Wunderground v.1.15,2013-01-10 04:21:00,
2013-01-09 23:28:00,47.3,45.4,30.52,North,359,4.0,4.0,93,0.00,,,0.05,Wunderground v.1.15,2013-01-10 04:28:00,
2013-01-09 23:33:00,47.5,45.6,30.52,North,360,1.0,3.0,93,0.00,,,0.05,Wunderground v.1.15,2013-01-10 04:33:00,
2013-01-09 23:39:00,47.7,45.8,30.52,NNE,33,0.0,1.0,93,0.00,,,0.05,Wunderground v.1.15,2013-01-10 04:39:00,
2013-01-09 23:45:00,47.7,45.8,30.52,NNE,33,0.0,1.0,93,0.00,,,0.05,Wunderground v.1.15,2013-01-10 04:45:00,
2013-01-09 23:51:00,47.8,45.9,30.52,NNE,32,0.0,1.0,93,0.00,,,0.05,Wunderground v.1.15,2013-01-10 04:51:00,
2013-01-09 23:58:00,47.9,45.7,30.52,East,97,0.0,1.0,92,0.00,,,0.05,Wunderground v.1.15,2013-01-10 04:58:00,